Time;durP1;ratioP1;P1;durP2;ratioP2;P2;SDS_P1;SDS_P2;PMS_P1;PMS_P2;Temp;Humidity;BMP_temperature;BMP_pressure;BME280_temperature;BME280_humidity;BME280_pressure;Samples;Min_cycle;Max_cycle;Signal;HPM_P1;HPM_P2
2022/04/13 00:00:42;;;;;;;11.50;7.27;;;;;;;9.95;48.08;94770.75;5055868;28;20242;-77
2022/04/13 00:03:08;;;;;;;9.20;7.63;;;;;;;9.82;48.20;94775.84;5059433;28;20184;-77
2022/04/13 00:05:33;;;;;;;13.50;7.43;;;;;;;10.07;48.10;94762.41;5053062;28;20198;-77
2022/04/13 00:08:06;;;;;;;9.50;7.50;;;;;;;9.85;48.55;94767.63;5056150;28;20189;-77
2022/04/13 00:10:32;;;;;;;12.53;8.20;;;;;;;9.68;49.22;94768.88;5055144;28;20607;-77
2022/04/13 00:12:58;;;;;;;7.73;6.93;;;;;;;9.79;49.12;94771.00;5051577;28;20440;-77
2022/04/13 00:15:23;;;;;;;9.20;7.33;;;;;;;9.98;48.58;94761.72;5061587;28;20453;-77
2022/04/13 00:17:49;;;;;;;10.20;7.77;;;;;;;10.00;47.84;94758.91;5062883;28;20186;-78
2022/04/13 00:20:14;;;;;;;9.90;7.77;;;;;;;9.91;48.79;94766.09;5060634;28;20192;-77
2022/04/13 00:22:40;;;;;;;12.03;8.80;;;;;;;9.80;48.93;94758.75;5052217;28;20666;-77
2022/04/13 00:25:06;;;;;;;9.70;8.40;;;;;;;9.58;49.43;94762.16;5052355;28;20333;-77
2022/04/13 00:27:32;;;;;;;9.30;7.53;;;;;;;9.69;49.18;94765.25;5046727;28;20223;-78
2022/04/13 00:29:57;;;;;;;10.80;8.40;;;;;;;9.58;48.90;94761.34;5057021;28;20410;-77
2022/04/13 00:32:23;;;;;;;13.90;9.27;;;;;;;9.50;49.08;94762.25;5059394;28;20198;-76
2022/04/13 00:34:48;;;;;;;11.67;8.90;;;;;;;9.54;49.91;94757.47;5063128;28;20202;-77
2022/04/13 00:37:14;;;;;;;11.73;9.23;;;;;;;9.47;49.77;94762.63;5083790;28;20658;-78
2022/04/13 00:39:39;;;;;;;11.30;8.80;;;;;;;9.53;49.68;94764.50;5054283;28;20179;-77
2022/04/13 00:42:07;;;;;;;11.27;8.73;;;;;;;9.38;50.54;94761.91;5059778;28;20164;-77
2022/04/13 00:44:33;;;;;;;12.00;9.20;;;;;;;9.40;49.48;94759.13;5072112;28;20207;-77
2022/04/13 00:47:02;;;;;;;10.87;9.17;;;;;;;9.60;48.94;94756.75;5059091;28;20437;-77
2022/04/13 00:49:27;;;;;;;9.80;8.10;;;;;;;9.65;49.01;94756.97;5052216;28;20446;-77
2022/04/13 00:51:53;;;;;;;9.13;8.10;;;;;;;9.71;48.75;94764.09;5054155;28;20441;-77
2022/04/13 00:54:19;;;;;;;12.37;8.13;;;;;;;9.60;48.97;94767.19;5086615;28;20606;-77
2022/04/13 00:56:48;;;;;;;9.57;8.20;;;;;;;9.70;49.35;94766.88;5055271;28;20171;-78
2022/04/13 00:59:15;;;;;;;9.10;8.00;;;;;;;9.65;48.90;94767.44;5059763;28;20500;-78
2022/04/13 01:01:46;;;;;;;9.20;8.07;;;;;;;9.56;49.74;94769.38;5059386;28;20425;-77
2022/04/13 01:04:13;;;;;;;8.60;7.60;;;;;;;9.60;49.28;94779.44;5058223;28;20430;-77
2022/04/13 01:06:40;;;;;;;10.87;8.53;;;;;;;9.83;48.59;94776.66;5057869;28;20473;-77
2022/04/13 01:09:05;;;;;;;9.70;8.50;;;;;;;9.69;48.42;94771.28;5057875;28;20432;-77
2022/04/13 01:11:31;;;;;;;7.80;7.00;;;;;;;9.49;49.52;94775.50;5048825;28;20452;-77
2022/04/13 01:13:57;;;;;;;8.23;7.33;;;;;;;9.56;48.79;94768.53;5046658;28;20179;-77
2022/04/13 01:16:24;;;;;;;8.87;6.93;;;;;;;9.38;49.73;94774.97;5044762;28;20192;-77
2022/04/13 01:18:54;;;;;;;10.33;8.07;;;;;;;9.25;49.47;94771.41;5054207;28;20466;-76
2022/04/13 01:21:34;;;;;;;9.00;8.10;;;;;;;9.34;50.09;94770.31;5047206;28;20437;-77
2022/04/13 01:24:02;;;;;;;11.70;8.73;;;;;;;9.21;49.83;94764.94;5052556;28;20440;-77
2022/04/13 01:26:27;;;;;;;8.50;7.70;;;;;;;9.26;50.27;94765.19;5049689;28;20429;-77
2022/04/13 01:28:53;;;;;;;10.23;8.20;;;;;;;8.92;50.80;94779.63;5056502;28;20495;-76
2022/04/13 01:31:19;;;;;;;11.00;8.10;;;;;;;9.15;50.43;94776.91;5064281;28;20268;-78
2022/04/13 01:33:44;;;;;;;11.93;8.37;;;;;;;9.07;50.41;94767.38;5056999;28;20187;-77
2022/04/13 01:36:10;;;;;;;12.40;7.67;;;;;;;8.91;51.53;94770.19;5053314;28;20205;-77
2022/04/13 01:38:35;;;;;;;8.83;7.93;;;;;;;9.10;51.22;94777.44;5061995;28;20182;-77
2022/04/13 01:41:01;;;;;;;8.57;7.70;;;;;;;9.09;50.64;94775.84;5045700;28;20174;-77
2022/04/13 01:43:27;;;;;;;10.40;7.23;;;;;;;9.05;50.58;94773.75;5047591;28;20175;-77
2022/04/13 01:45:53;;;;;;;8.80;7.90;;;;;;;9.16;50.67;94768.91;5060854;28;20197;-77
2022/04/13 01:48:19;;;;;;;10.93;8.37;;;;;;;9.25;49.55;94768.81;5050466;28;20183;-77
2022/04/13 01:50:45;;;;;;;8.60;7.80;;;;;;;9.06;51.12;94770.19;5059102;28;20448;-77
2022/04/13 01:53:11;;;;;;;9.13;8.20;;;;;;;9.16;50.39;94761.06;5053869;28;20175;-77
2022/04/13 01:55:36;;;;;;;9.67;8.50;;;;;;;9.16;50.42;94771.53;5064564;28;20460;-77
2022/04/13 01:58:02;;;;;;;8.03;7.27;;;;;;;9.19;49.84;94772.94;5046259;28;20469;-78
2022/04/13 02:00:27;;;;;;;10.30;7.60;;;;;;;9.29;49.67;94768.22;5064860;28;20755;-77
2022/04/13 02:02:53;;;;;;;8.27;7.10;;;;;;;9.18;50.10;94766.94;5054567;28;20185;-78
2022/04/13 02:05:19;;;;;;;9.30;8.40;;;;;;;8.86;51.41;94773.34;5053715;28;20226;-78
2022/04/13 02:07:45;;;;;;;11.90;7.60;;;;;;;8.73;51.16;94770.56;5062577;28;20538;-77
2022/04/13 02:10:10;;;;;;;12.67;8.50;;;;;;;8.84;51.82;94771.88;5059720;28;20432;-77
2022/04/13 02:12:37;;;;;;;8.53;7.60;;;;;;;8.73;52.11;94771.34;5048766;28;20239;-78
2022/04/13 02:15:04;;;;;;;12.43;8.17;;;;;;;9.13;50.62;94765.84;5044524;28;20682;-77
2022/04/13 02:17:30;;;;;;;11.77;8.87;;;;;;;8.66;51.66;94765.22;5057830;28;20425;-77
2022/04/13 02:19:55;;;;;;;11.30;8.20;;;;;;;8.93;51.31;94765.59;5056472;28;20501;-77
2022/04/13 02:22:20;;;;;;;10.07;8.67;;;;;;;8.53;52.00;94754.59;5051965;28;20175;-77
2022/04/13 02:24:46;;;;;;;11.10;9.33;;;;;;;8.66;51.75;94754.78;5064919;28;20170;-78
2022/04/13 02:27:12;;;;;;;9.80;8.23;;;;;;;8.78;51.75;94755.97;5051546;28;20234;-77
2022/04/13 02:29:38;;;;;;;10.83;8.77;;;;;;;8.77;51.71;94758.75;5054453;28;20183;-77
2022/04/13 02:32:04;;;;;;;8.73;7.77;;;;;;;8.57;52.05;94753.25;5043890;28;20758;-77
2022/04/13 02:34:30;;;;;;;8.87;7.97;;;;;;;8.60;52.24;94751.09;5050591;28;20460;-77
2022/04/13 02:36:56;;;;;;;16.40;9.23;;;;;;;8.63;52.21;94756.94;5044015;28;20425;-77
2022/04/13 02:39:22;;;;;;;8.53;7.70;;;;;;;8.56;52.00;94759.47;5058520;28;20213;-77
2022/04/13 02:41:48;;;;;;;12.60;8.53;;;;;;;8.35;52.83;94758.34;5063692;28;20432;-77
2022/04/13 02:44:13;;;;;;;14.23;9.90;;;;;;;8.34;53.16;94761.91;5055833;28;20442;-77
2022/04/13 02:46:41;;;;;;;10.90;8.87;;;;;;;8.60;52.92;94756.31;5048961;28;20608;-76
2022/04/13 02:49:06;;;;;;;10.50;9.00;;;;;;;8.57;51.99;94756.69;5053440;28;20185;-77
2022/04/13 02:51:32;;;;;;;12.70;10.30;;;;;;;8.54;52.37;94753.63;5055977;28;20784;-77
2022/04/13 02:53:57;;;;;;;18.03;9.30;;;;;;;7.95;54.30;94746.47;5057274;28;20366;-77
2022/04/13 02:56:23;;;;;;;11.00;8.93;;;;;;;7.88;54.60;94755.97;5056186;28;20206;-76
2022/04/13 02:58:48;;;;;;;10.90;9.60;;;;;;;8.06;54.16;94753.84;5049143;28;20270;-77
2022/04/13 03:01:14;;;;;;;14.63;9.80;;;;;;;7.69;54.72;94762.47;5053342;28;20179;-77
2022/04/13 03:03:39;;;;;;;11.93;9.00;;;;;;;7.29;56.41;94757.31;5055742;28;20273;-77
2022/04/13 03:06:05;;;;;;;10.90;8.90;;;;;;;7.86;55.04;94756.16;5064500;28;20170;-77
2022/04/13 03:08:30;;;;;;;10.53;7.03;;;;;;;8.07;54.24;94765.09;5056654;28;20758;-77
2022/04/13 03:10:56;;;;;;;14.90;10.70;;;;;;;8.01;53.55;94770.03;5062972;28;20235;-76
2022/04/13 03:13:22;;;;;;;17.50;9.57;;;;;;;8.09;53.15;94770.94;5064609;28;20261;-77
2022/04/13 03:15:47;;;;;;;18.37;10.27;;;;;;;8.05;53.38;94778.31;5065898;28;20512;-77
2022/04/13 03:18:13;;;;;;;20.43;11.27;;;;;;;8.21;52.66;94777.34;5067242;28;20261;-77
2022/04/13 03:20:38;;;;;;;14.90;10.77;;;;;;;8.13;52.54;94774.81;5068761;28;20163;-77
2022/04/13 03:23:04;;;;;;;15.23;10.10;;;;;;;8.16;53.69;94774.47;5061994;28;22280;-77
2022/04/13 03:25:30;;;;;;;16.00;8.23;;;;;;;8.29;53.19;94777.31;5058014;28;20193;-77
2022/04/13 03:27:55;;;;;;;8.43;6.90;;;;;;;8.23;52.70;94780.59;5053785;28;20474;-77
2022/04/13 03:30:22;;;;;;;10.10;8.93;;;;;;;8.02;53.41;94778.66;5063477;28;20205;-77
2022/04/13 03:32:48;;;;;;;12.17;8.70;;;;;;;8.04;54.19;94775.88;5049204;28;20293;-76
2022/04/13 03:35:14;;;;;;;12.80;8.30;;;;;;;7.90;54.19;94780.06;5053055;28;20462;-76
2022/04/13 03:37:42;;;;;;;11.73;7.80;;;;;;;7.99;53.69;94773.81;5062465;28;20175;-77
2022/04/13 03:40:10;;;;;;;8.63;7.83;;;;;;;8.11;53.55;94768.97;5064474;28;20171;-77
2022/04/13 03:42:36;;;;;;;10.80;8.70;;;;;;;8.24;53.65;94773.59;5063418;28;20420;-77
2022/04/13 03:45:07;;;;;;;8.77;7.83;;;;;;;8.27;52.99;94776.66;5062707;28;20467;-77
2022/04/13 03:47:33;;;;;;;9.50;7.30;;;;;;;8.36;52.80;94774.78;5055429;28;20405;-77
2022/04/13 03:49:58;;;;;;;10.50;7.43;;;;;;;8.46;52.26;94778.00;5055581;28;20501;-77
2022/04/13 03:52:24;;;;;;;8.67;7.87;;;;;;;8.97;50.81;94770.28;5061501;28;20226;-76
2022/04/13 03:54:50;;;;;;;9.40;8.20;;;;;;;8.69;52.11;94775.31;5046924;28;20215;-77
2022/04/13 03:57:16;;;;;;;9.60;8.47;;;;;;;8.62;52.09;94777.00;5054922;28;20964;-77
2022/04/13 03:59:41;;;;;;;14.20;8.50;;;;;;;8.50;52.62;94781.03;5060717;28;20259;-77
2022/04/13 04:02:07;;;;;;;12.17;8.50;;;;;;;8.72;52.85;94774.13;5052302;28;20175;-76
2022/04/13 04:04:32;;;;;;;11.40;9.40;;;;;;;8.96;51.44;94775.69;5063958;28;20202;-77
2022/04/13 04:06:58;;;;;;;15.20;9.50;;;;;;;8.63;52.19;94785.63;5066651;28;20173;-77
2022/04/13 04:09:23;;;;;;;21.97;12.10;;;;;;;8.76;51.78;94793.66;5052364;28;20187;-77
2022/04/13 04:11:49;;;;;;;23.20;12.47;;;;;;;9.34;50.93;94797.22;5056275;28;20173;-77
2022/04/13 04:14:14;;;;;;;22.47;14.00;;;;;;;8.86;51.67;94803.81;5094368;28;20222;-77
2022/04/13 04:16:40;;;;;;;36.87;15.83;;;;;;;8.95;52.10;94806.19;5047356;28;20238;-77
2022/04/13 04:19:05;;;;;;;22.27;11.70;;;;;;;9.11;51.73;94799.97;5058911;28;20212;-77
2022/04/13 04:21:31;;;;;;;19.00;11.83;;;;;;;8.95;51.92;94807.97;5064193;28;20203;-76
2022/04/13 04:23:56;;;;;;;13.60;11.40;;;;;;;9.16;51.39;94805.47;5053185;28;20210;-77
2022/04/13 04:26:22;;;;;;;10.53;8.50;;;;;;;8.43;52.44;94825.28;5064699;28;20668;-77
2022/04/13 04:28:47;;;;;;;17.83;10.30;;;;;;;7.94;54.49;94828.22;5046551;28;20219;-76
2022/04/13 04:31:13;;;;;;;10.87;7.47;;;;;;;7.47;55.10;94827.34;5052221;28;20194;-76
2022/04/13 04:33:39;;;;;;;12.70;8.77;;;;;;;7.53;55.74;94824.09;5059348;28;20187;-76
2022/04/13 04:36:04;;;;;;;10.33;9.23;;;;;;;8.45;52.82;94836.34;5062174;28;20201;-77
2022/04/13 04:38:32;;;;;;;13.13;8.97;;;;;;;8.58;52.85;94833.13;5054204;28;20226;-76
2022/04/13 04:40:59;;;;;;;11.90;9.70;;;;;;;8.86;51.14;94842.97;5053534;28;20210;-77
2022/04/13 04:43:24;;;;;;;10.40;9.00;;;;;;;9.13;50.41;94839.75;5057791;28;20460;-76
2022/04/13 04:45:50;;;;;;;10.40;9.43;;;;;;;8.77;51.56;94845.66;5045245;28;20434;-77
2022/04/13 04:48:16;;;;;;;12.83;9.43;;;;;;;8.94;51.36;94855.94;5064631;28;20182;-77
2022/04/13 04:50:41;;;;;;;15.83;10.80;;;;;;;9.11;50.60;94857.41;5064295;28;20241;-77
2022/04/13 04:53:07;;;;;;;14.70;11.77;;;;;;;9.18;50.70;94860.91;5047894;28;20569;-76
2022/04/13 04:55:32;;;;;;;18.00;11.30;;;;;;;9.30;49.98;94863.88;5052649;28;20180;-77
2022/04/13 04:57:58;;;;;;;14.87;9.80;;;;;;;9.41;49.61;94864.41;5056814;28;20190;-78
2022/04/13 05:00:24;;;;;;;29.10;21.10;;;;;;;9.66;49.31;94863.13;5059625;28;20220;-77
2022/04/13 05:02:51;;;;;;;14.90;12.07;;;;;;;9.61;49.69;94869.88;5048864;28;20429;-77
2022/04/13 05:05:18;;;;;;;13.80;10.47;;;;;;;9.34;49.24;94875.56;5063737;28;20180;-77
2022/04/13 05:07:45;;;;;;;11.33;9.80;;;;;;;9.17;49.41;94874.94;5056074;28;20492;-77
2022/04/13 05:10:13;;;;;;;14.00;10.10;;;;;;;9.44;48.95;94872.69;5061067;28;20425;-76
2022/04/13 05:12:47;;;;;;;16.43;9.57;;;;;;;9.78;47.80;94869.47;5057011;28;20858;-77
2022/04/13 05:15:13;;;;;;;10.17;9.10;;;;;;;9.43;48.68;94880.69;5050405;28;20520;-77
2022/04/13 05:17:39;;;;;;;13.13;10.07;;;;;;;9.59;48.29;94883.13;5057033;28;21003;-76
2022/04/13 05:20:06;;;;;;;10.93;9.80;;;;;;;9.11;49.90;94886.13;5064324;28;20187;-77
2022/04/13 05:22:32;;;;;;;11.50;9.80;;;;;;;9.65;48.96;94879.78;5046965;28;20497;-77
2022/04/13 05:25:03;;;;;;;11.97;10.60;;;;;;;9.75;48.29;94875.09;5054461;28;20421;-77
2022/04/13 05:27:29;;;;;;;15.13;9.30;;;;;;;9.51;48.75;94878.81;5049806;28;20227;-76
2022/04/13 05:29:54;;;;;;;11.37;8.73;;;;;;;9.75;47.66;94872.47;5047509;28;20420;-76
2022/04/13 05:32:20;;;;;;;11.70;10.50;;;;;;;10.01;47.63;94873.75;5057888;28;20206;-77
2022/04/13 05:34:45;;;;;;;14.57;10.30;;;;;;;9.80;47.38;94882.38;5055309;28;20206;-76
2022/04/13 05:37:11;;;;;;;18.00;11.03;;;;;;;9.92;47.19;94875.69;5046061;28;20186;-77
2022/04/13 05:39:38;;;;;;;12.17;10.63;;;;;;;10.68;46.43;94884.88;5059480;28;20604;-77
2022/04/13 05:42:04;;;;;;;16.60;11.50;;;;;;;11.07;45.70;94879.13;5053746;28;20167;-76
2022/04/13 05:44:29;;;;;;;11.60;9.87;;;;;;;11.40;44.79;94869.84;5062146;28;20435;-77
2022/04/13 05:46:55;;;;;;;14.70;10.20;;;;;;;11.48;43.96;94878.38;5058499;28;20437;-77
2022/04/13 05:49:21;;;;;;;12.40;10.63;;;;;;;11.58;43.70;94875.41;5058513;28;20186;-77
2022/04/13 05:51:46;;;;;;;10.23;9.30;;;;;;;11.88;42.60;94875.94;5048802;28;20179;-76
2022/04/13 05:54:12;;;;;;;11.87;10.07;;;;;;;11.89;42.51;94877.59;5052502;28;20190;-76
2022/04/13 05:56:37;;;;;;;10.53;8.73;;;;;;;12.32;41.50;94871.22;5064216;28;20571;-77
2022/04/13 05:59:03;;;;;;;13.77;10.07;;;;;;;12.50;41.08;94873.25;5065559;28;20193;-77
2022/04/13 06:01:28;;;;;;;12.57;9.67;;;;;;;12.73;40.50;94872.91;5051695;28;20175;-76
2022/04/13 06:03:54;;;;;;;18.17;9.77;;;;;;;13.11;40.58;94874.91;5051517;28;20186;-77
2022/04/13 06:06:21;;;;;;;11.20;9.33;;;;;;;13.17;40.02;94876.72;5061291;28;20709;-77
2022/04/13 06:08:46;;;;;;;9.90;8.23;;;;;;;13.28;39.60;94872.66;5078848;28;20435;-76
2022/04/13 06:11:12;;;;;;;9.43;8.60;;;;;;;13.46;39.03;94878.09;5053257;28;20428;-76
2022/04/13 06:13:37;;;;;;;8.87;8.00;;;;;;;13.39;39.07;94877.31;5061298;28;20558;-77
2022/04/13 06:16:07;;;;;;;11.77;8.13;;;;;;;12.64;39.50;94881.97;5051723;28;20229;-77
2022/04/13 06:18:32;;;;;;;10.33;9.27;;;;;;;12.83;39.36;94888.25;5060061;28;20536;-77
2022/04/13 06:20:58;;;;;;;9.40;8.50;;;;;;;13.05;39.73;94881.78;5062551;28;20441;-77
2022/04/13 06:23:23;;;;;;;13.00;8.73;;;;;;;12.90;39.40;94883.81;5068523;28;20583;-77
2022/04/13 06:25:49;;;;;;;10.00;8.90;;;;;;;12.95;38.51;94878.75;5067632;28;20229;-76
2022/04/13 06:28:15;;;;;;;9.97;9.00;;;;;;;13.52;38.25;94883.53;5060851;28;20245;-77
2022/04/13 06:30:40;;;;;;;21.80;9.87;;;;;;;13.54;37.88;94886.78;5051525;28;20202;-77
2022/04/13 06:33:06;;;;;;;14.97;9.70;;;;;;;13.47;37.95;94884.97;5054367;28;20182;-77
2022/04/13 06:35:31;;;;;;;13.80;11.30;;;;;;;13.32;38.77;94888.84;5063159;28;20225;-77
2022/04/13 06:37:57;;;;;;;14.93;11.83;;;;;;;13.67;38.35;94886.72;5062485;28;20244;-77
2022/04/13 06:40:22;;;;;;;10.97;9.80;;;;;;;13.04;39.33;94885.41;5053915;28;20300;-77
2022/04/13 06:42:48;;;;;;;9.03;8.17;;;;;;;12.99;38.92;94885.19;5053647;28;20183;-76
2022/04/13 06:45:15;;;;;;;10.10;9.20;;;;;;;12.96;39.13;94883.00;5052692;28;20221;-77
2022/04/13 06:47:41;;;;;;;11.80;9.13;;;;;;;13.03;39.26;94890.84;5055459;28;20432;-77
2022/04/13 06:50:08;;;;;;;11.87;9.33;;;;;;;12.42;40.02;94897.09;5055966;28;20417;-77
2022/04/13 06:52:37;;;;;;;10.13;9.13;;;;;;;12.55;39.12;94891.06;5060188;28;20429;-77
2022/04/13 06:55:03;;;;;;;9.80;8.80;;;;;;;13.45;37.76;94892.25;5054600;28;20488;-77
2022/04/13 06:57:30;;;;;;;10.27;9.30;;;;;;;13.83;37.39;94888.13;5056389;28;20408;-77
2022/04/13 06:59:56;;;;;;;11.00;8.90;;;;;;;13.64;37.24;94881.91;5056596;28;20421;-77
2022/04/13 07:02:25;;;;;;;10.93;8.53;;;;;;;14.07;36.31;94883.94;5050860;28;20410;-77
2022/04/13 07:04:51;;;;;;;10.93;9.00;;;;;;;13.74;36.91;94890.16;5053048;28;20527;-77
2022/04/13 07:07:16;;;;;;;9.13;7.80;;;;;;;14.36;35.71;94881.75;5052562;28;20582;-77
2022/04/13 07:09:42;;;;;;;9.50;8.50;;;;;;;14.44;36.46;94878.88;5054107;28;20183;-77
2022/04/13 07:12:08;;;;;;;9.90;9.00;;;;;;;14.20;36.41;94877.81;5062928;28;20201;-77
2022/04/13 07:14:33;;;;;;;11.13;9.83;;;;;;;14.47;35.46;94891.63;5052297;28;20235;-77
2022/04/13 07:16:59;;;;;;;11.40;8.63;;;;;;;14.37;35.48;94888.66;5059898;28;20493;-77
2022/04/13 07:19:24;;;;;;;10.20;9.17;;;;;;;14.28;36.08;94890.72;5086101;28;20175;-77
2022/04/13 07:21:50;;;;;;;10.27;9.27;;;;;;;14.07;36.40;94894.47;5056680;28;20174;-77
2022/04/13 07:24:18;;;;;;;10.47;9.47;;;;;;;14.28;35.77;94884.66;5054861;28;20174;-77
2022/04/13 07:26:43;;;;;;;9.60;8.80;;;;;;;14.91;35.09;94895.22;5057191;28;20177;-77
2022/04/13 07:29:09;;;;;;;10.87;7.83;;;;;;;14.73;34.59;94892.50;5051430;28;21023;-77
2022/04/13 07:31:34;;;;;;;8.57;7.53;;;;;;;14.58;33.63;94893.59;5056467;28;20193;-76
2022/04/13 07:34:00;;;;;;;9.57;8.60;;;;;;;14.74;34.41;94888.84;5055643;28;20203;-76
2022/04/13 07:36:25;;;;;;;8.60;7.90;;;;;;;14.43;34.68;94893.06;5058532;28;20686;-76
2022/04/13 07:38:51;;;;;;;13.17;8.93;;;;;;;14.84;33.98;94892.63;5058750;28;20206;-76
2022/04/13 07:41:17;;;;;;;9.03;8.23;;;;;;;15.42;33.43;94883.59;5057467;28;20237;-77
2022/04/13 07:43:43;;;;;;;9.80;8.80;;;;;;;15.16;33.33;94891.75;5065450;28;20189;-77
2022/04/13 07:46:09;;;;;;;11.60;9.10;;;;;;;15.21;33.39;94884.00;5050134;28;20231;-77
2022/04/13 07:48:35;;;;;;;8.70;8.00;;;;;;;15.53;32.75;94886.53;5060766;28;20924;-77
2022/04/13 07:51:00;;;;;;;9.10;8.20;;;;;;;16.02;31.43;94879.50;5086710;28;20195;-77
2022/04/13 07:53:26;;;;;;;7.67;6.27;;;;;;;14.11;32.57;94879.88;5051275;28;20180;-77
2022/04/13 07:55:51;;;;;;;8.60;6.80;;;;;;;14.59;32.11;94878.63;5058772;28;20665;-76
2022/04/13 07:58:17;;;;;;;8.23;6.07;;;;;;;14.97;31.18;94888.28;5051844;28;20186;-77
2022/04/13 08:00:42;;;;;;;11.70;7.73;;;;;;;15.75;31.17;94879.81;5058536;28;20178;-78
2022/04/13 08:03:08;;;;;;;15.87;9.20;;;;;;;15.07;32.24;94887.78;5052195;28;20186;-77
2022/04/13 08:05:34;;;;;;;13.80;8.70;;;;;;;16.04;31.59;94881.94;5055707;28;20241;-77
2022/04/13 08:07:59;;;;;;;8.50;7.70;;;;;;;16.26;30.38;94884.88;5052919;28;20271;-77
2022/04/13 08:10:25;;;;;;;7.23;6.27;;;;;;;15.10;31.33;94882.88;5056414;28;20210;-77
2022/04/13 08:12:51;;;;;;;9.90;8.13;;;;;;;15.74;30.28;94880.84;5052368;28;20204;-76
2022/04/13 08:15:17;;;;;;;9.50;7.37;;;;;;;16.12;30.04;94879.78;5056002;28;20464;-77
2022/04/13 08:17:48;;;;;;;8.33;7.50;;;;;;;16.25;28.59;94876.16;5052782;28;20182;-76
2022/04/13 08:20:14;;;;;;;12.80;9.77;;;;;;;16.20;29.76;94881.28;5057606;28;20201;-76
2022/04/13 08:22:41;;;;;;;9.17;6.80;;;;;;;15.96;29.49;94885.69;5061805;28;20421;-75
2022/04/13 08:25:10;;;;;;;9.10;7.73;;;;;;;16.38;29.02;94885.75;5055111;28;20179;-77
2022/04/13 08:27:36;;;;;;;6.43;5.80;;;;;;;16.42;27.15;94886.91;5051947;28;20460;-76
2022/04/13 08:30:03;;;;;;;9.33;7.23;;;;;;;16.36;27.46;94887.81;5053307;28;20425;-76
2022/04/13 08:32:28;;;;;;;10.67;6.03;;;;;;;17.34;26.16;94881.22;5058638;28;20174;-77
2022/04/13 08:34:54;;;;;;;7.50;6.80;;;;;;;17.23;25.96;94882.03;5052379;28;20472;-76
2022/04/13 08:37:20;;;;;;;6.50;5.80;;;;;;;16.68;25.99;94877.00;5047673;28;20179;-77
2022/04/13 08:39:48;;;;;;;5.20;4.60;;;;;;;17.36;23.78;94884.44;5055637;28;20191;-77
2022/04/13 08:42:32;;;;;;;9.00;6.20;;;;;;;16.82;25.66;94883.72;5054008;28;20414;-76
2022/04/13 08:45:08;;;;;;;9.67;7.27;;;;;;;17.99;24.40;94876.78;5055858;28;20418;-77
2022/04/13 08:47:37;;;;;;;7.70;6.20;;;;;;;18.53;24.20;94871.97;5048824;28;20406;-77
2022/04/13 08:50:04;;;;;;;7.97;6.47;;;;;;;18.06;24.31;94864.22;5053798;28;20443;-77
2022/04/13 08:52:39;;;;;;;9.60;5.10;;;;;;;17.74;23.52;94861.16;5051050;28;20505;-78
2022/04/13 08:55:11;;;;;;;7.50;6.33;;;;;;;17.87;22.98;94860.94;5046694;28;20509;-77
2022/04/13 08:57:44;;;;;;;8.80;6.30;;;;;;;17.95;22.92;94855.25;5047693;28;20422;-78
2022/04/13 09:00:16;;;;;;;6.57;5.97;;;;;;;17.14;23.77;94864.91;5055291;28;20483;-77
2022/04/13 09:02:48;;;;;;;7.53;6.03;;;;;;;17.49;24.50;94864.88;5061693;28;20445;-77
2022/04/13 09:05:31;;;;;;;6.47;5.20;;;;;;;17.81;22.41;94858.38;5050856;28;21008;-78
2022/04/13 09:08:05;;;;;;;8.90;3.20;;;;;;;18.27;18.67;94852.16;5055864;28;20472;-78
2022/04/13 09:10:32;;;;;;;5.00;4.40;;;;;;;17.81;20.47;94853.09;5054653;28;20444;-77
2022/04/13 09:12:59;;;;;;;5.80;4.03;;;;;;;18.56;20.06;94849.47;5056237;28;20434;-77
2022/04/13 09:15:25;;;;;;;4.63;4.23;;;;;;;18.97;20.40;94850.19;5044605;28;20450;-77
2022/04/13 09:17:51;;;;;;;7.37;5.80;;;;;;;19.58;21.37;94841.47;5060146;28;20488;-78
2022/04/13 09:20:17;;;;;;;12.80;5.83;;;;;;;19.30;20.45;94838.72;5083364;28;20422;-77
2022/04/13 09:22:43;;;;;;;7.13;5.60;;;;;;;19.49;20.56;94841.91;5064597;28;20186;-78
2022/04/13 09:25:10;;;;;;;6.60;4.97;;;;;;;19.78;20.67;94843.63;5059742;28;20182;-78
2022/04/13 09:27:37;;;;;;;6.40;5.90;;;;;;;18.20;22.12;94842.75;5065560;28;20470;-78
2022/04/13 09:30:03;;;;;;;6.80;6.10;;;;;;;18.83;22.03;94838.28;5062296;28;20397;-77
2022/04/13 09:32:30;;;;;;;8.73;5.30;;;;;;;18.28;22.28;94839.72;5050213;28;20436;-78
2022/04/13 09:34:56;;;;;;;6.63;6.00;;;;;;;18.91;22.46;94835.22;5063545;28;20453;-77
2022/04/13 09:37:28;;;;;;;6.80;5.83;;;;;;;20.02;20.72;94834.34;5050588;28;20478;-78
2022/04/13 09:39:53;;;;;;;7.40;5.87;;;;;;;19.66;21.40;94836.56;5046350;28;20413;-77
2022/04/13 09:42:20;;;;;;;10.57;6.97;;;;;;;20.45;20.57;94830.03;5054436;28;20441;-78
2022/04/13 09:44:55;;;;;;;11.77;5.87;;;;;;;20.45;20.94;94826.53;5066257;28;20747;-78
2022/04/13 09:47:20;;;;;;;9.40;5.80;;;;;;;20.39;20.26;94832.88;5065326;28;20423;-78
2022/04/13 09:49:50;;;;;;;8.13;5.10;;;;;;;19.22;19.85;94827.75;5055980;28;20450;-78
2022/04/13 09:52:16;;;;;;;4.47;3.90;;;;;;;18.88;19.92;94820.59;5058791;28;20528;-77
2022/04/13 09:54:45;;;;;;;3.17;2.90;;;;;;;19.04;18.38;94815.53;5057694;28;20441;-77
2022/04/13 09:57:25;;;;;;;2.83;2.63;;;;;;;20.36;17.80;94812.91;5061571;28;20371;-77
2022/04/13 09:59:59;;;;;;;3.93;3.60;;;;;;;20.38;17.83;94810.81;5064223;28;20440;-78
2022/04/13 10:02:38;;;;;;;5.70;3.50;;;;;;;19.55;18.89;94808.25;5059843;28;20456;-78
2022/04/13 10:05:07;;;;;;;5.00;3.57;;;;;;;19.57;19.57;94814.13;5046161;28;20421;-78
2022/04/13 10:07:34;;;;;;;9.10;3.77;;;;;;;19.78;19.60;94803.78;5051670;28;20424;-78
2022/04/13 10:10:00;;;;;;;5.30;3.93;;;;;;;20.00;19.56;94804.56;5054008;28;20425;-77
2022/04/13 10:12:26;;;;;;;6.43;3.80;;;;;;;20.24;19.28;94801.63;5067907;28;20528;-77
2022/04/13 10:14:52;;;;;;;3.97;3.67;;;;;;;19.11;20.22;94806.34;5053797;28;20494;-77
2022/04/13 10:17:20;;;;;;;5.13;3.30;;;;;;;19.47;19.71;94814.00;5059008;28;20298;-78
2022/04/13 10:19:57;;;;;;;3.83;3.37;;;;;;;19.76;19.58;94811.19;5047510;28;20433;-77
2022/04/13 10:22:23;;;;;;;4.40;4.00;;;;;;;19.85;20.44;94804.41;5063971;28;20424;-78
2022/04/13 10:24:50;;;;;;;5.10;3.80;;;;;;;20.16;19.84;94810.06;5064374;28;20445;-77
2022/04/13 10:27:19;;;;;;;3.97;3.60;;;;;;;19.45;20.29;94802.84;5051170;28;20182;-78
2022/04/13 10:29:49;;;;;;;4.13;3.80;;;;;;;18.90;20.95;94805.25;5063870;28;20433;-77
2022/04/13 10:32:22;;;;;;;3.43;3.17;;;;;;;19.86;20.02;94804.16;5064068;28;20440;-78
2022/04/13 10:34:49;;;;;;;4.93;4.03;;;;;;;19.97;19.90;94794.44;5064053;28;20869;-78
2022/04/13 10:37:17;;;;;;;5.43;3.80;;;;;;;20.54;19.89;94797.66;5050453;28;20409;-77
2022/04/13 10:39:45;;;;;;;3.60;3.30;;;;;;;20.75;19.58;94796.78;5053097;28;20579;-78
2022/04/13 10:42:12;;;;;;;3.60;3.40;;;;;;;19.60;20.76;94792.41;5045318;28;20418;-78
2022/04/13 10:44:41;;;;;;;4.30;3.90;;;;;;;20.88;19.88;94797.41;5044574;28;20438;-77
2022/04/13 10:47:09;;;;;;;3.90;3.60;;;;;;;20.41;20.14;94797.03;5058226;28;20424;-78
2022/04/13 10:49:44;;;;;;;4.90;3.40;;;;;;;20.65;20.19;94794.06;5065332;28;20462;-77
2022/04/13 10:52:16;;;;;;;4.13;3.60;;;;;;;21.00;19.75;94787.38;5044088;28;20417;-77
2022/04/13 10:54:48;;;;;;;4.10;3.80;;;;;;;21.04;19.92;94783.16;5053299;28;20598;-78
2022/04/13 10:57:16;;;;;;;3.87;3.40;;;;;;;21.22;19.94;94782.72;5054821;28;20511;-78
2022/04/13 10:59:51;;;;;;;3.27;3.07;;;;;;;21.40;19.21;94784.16;5054454;28;20608;-78
2022/04/13 11:02:35;;;;;;;2.60;2.40;;;;;;;21.20;19.19;94779.53;5046401;28;20647;-77
2022/04/13 11:05:00;;;;;;;7.60;2.80;;;;;;;21.39;19.53;94792.41;5046547;28;20442;-77
2022/04/13 11:07:26;;;;;;;6.30;3.53;;;;;;;21.64;18.94;94775.78;5048658;28;20928;-77
2022/04/13 11:09:57;;;;;;;2.93;2.70;;;;;;;20.80;19.60;94775.53;5067567;28;20194;-77
2022/04/13 11:12:25;;;;;;;4.47;3.97;;;;;;;20.20;20.11;94771.28;5054933;28;20428;-77
2022/04/13 11:14:58;;;;;;;3.10;2.87;;;;;;;20.60;19.98;94780.69;5061912;28;20428;-77
2022/04/13 11:17:25;;;;;;;3.97;3.60;;;;;;;21.34;19.38;94766.56;5067254;28;20912;-77
2022/04/13 11:19:52;;;;;;;4.93;3.50;;;;;;;21.13;19.18;94765.63;5055462;28;20418;-78
2022/04/13 11:22:18;;;;;;;4.70;3.90;;;;;;;21.57;19.44;94751.22;5067985;28;20429;-78
2022/04/13 11:24:47;;;;;;;4.33;3.93;;;;;;;21.22;19.59;94761.44;5062357;28;20429;-78
2022/04/13 11:27:14;;;;;;;4.40;4.00;;;;;;;20.64;20.47;94760.53;5048347;28;20414;-78
2022/04/13 11:29:41;;;;;;;3.73;3.23;;;;;;;21.90;18.90;94754.56;5061895;28;20443;-79